Aérodrome :
LOGIN :

S'inscrire | Disclaimer

   EN    FR    IT 

 










Légende :    VFR   VFR Marginal   IFR   IFR Intensif   IFR Très Intensif
Visi : 
Plafond : 
>= 8 km
>= 3000ft
5 à 8 km
1000 à 3000 ft
1500m à 5 km
500 à 1000 ft
800 à 1500m
200 à 500 ft
< 800m
< 200 ft
Symboles :   Orages  Brouillard  Fortes neiges  Fortes précipitations  Vent > 20 kt
SIGMETs :   Divers  Orages  Givrage  Turbulence  Onde Orograph.  Cendres Volcan.







- Altitude de l'aérodrome : 489 ft
- Code IATA : GDN


EPGD - Gdansk

DERNIER METAR :
  • 240800Z 26010KT 9999 FEW026 10/05 Q1011

METARs EXPIRÉS :
  • 240730Z 26012KT 230V290 9999 FEW022 10/04 Q1011
  • 240700Z 26010KT 230V290 9999 FEW010 09/05 Q1011
  • 240630Z 26010KT CAVOK 08/05 Q1011
  • 240600Z 25008KT CAVOK 08/05 Q1011
  • 240530Z 25009KT CAVOK 07/04 Q1011

TAF TAF EPGD
Valide du 24 à 06h jusqu'au 25 à 06h UTC


240530Z 2406/2506 27010KT 9999 SCT030
TEMPO 2408/2418 26015G28KT
Pas de NOTAMs connus pour ce terrain.



MET'MAP, la Météo Aéronautique d'un coup d'oeil ! - Copyright ORBIFLY Décembre 2007 - Disclaimer

ORBIFLY MET'MAP TEAM :

Programmation & Développement : Alexandra Zaïnal
Conception & Développement : Baudouin d'Aumeries
Co-Programmation & Développement : Marc-Olivier Méhu
Soutien technique & logistique : Manuel Goepfert

Contact : metmap@orbifly.com




SOURCES & CREDITS :

   NOAA